• Join FlightAware (Why Join?)
  • Login
  • US Flag GB Flag 
10:45 EDT


 

Airport Tracker/Info


-or-


 

Live Flight TrackerFlight Track Log ✈ UAL4257 ✈ 18-Apr-2013 ✈ MMMY / MTY - KIAH

Flight Track Log - Related Links

Times and Time Zones

All times are in EDT time to prevent confusion due to time zone crossing. See the UAL4257 flight status page for this flight to view local times or setup timezone preferences in your user account.

Time Position Orientation Groundspeed Altitude Reporting Facility
EDT Latitude Longitude Course Direction KTS MPH feet Rate Location/Type
12:13 26.0319 -100.1733 44° Northeast 286 329 10,100  Level Houston Center
12:14 26.2718 -99.5755 44° Northeast  Level Estimated
12:14 26.1131 -100.1361 22° Northeast 300 345 11,200  Level Houston Center
12:15 26.3449 -99.4962 44° Northeast  Level Estimated
12:15 26.1706 -100.0417 56° Northeast 341 392 11,900  Level Houston Center
12:16 26.4180 -99.4168 44° Northeast  Level Estimated
12:16 26.2419 -99.9533 48° Northeast 368 423 12,500  Level Houston Center
12:17 26.4910 -99.3372 44° Northeast  Level Estimated
12:17 26.3097 -99.8553 52° Northeast 387 445 13,700  Level Houston Center
12:18 26.5640 -99.2576 44° Northeast  Level Estimated
12:18 26.3903 -99.7372 53° Northeast 395 455 15,100  Level Houston Center
12:19 26.4556 -99.6369 54° Northeast 397 457 16,100 960 Climbing Houston Center
12:20 26.5231 -99.5353 53° Northeast 403 464 17,200 1,080 Climbing Houston Center
12:21 26.5919 -99.4342 53° Northeast 407 468 18,400 1,200 Climbing Houston Center
12:22 26.6606 -99.3325 53° Northeast 409 471 19,800 1,560 Climbing Houston Center
12:23 26.7406 -99.2119 53° Northeast 407 468 21,700 1,740 Climbing Houston Center
12:24 26.8058 -99.1133 53° Northeast 400 460 23,400 1,320 Climbing Houston Center
12:25 26.8711 -99.0175 53° Northeast 392 451 24,500 960 Climbing Houston Center
12:26 26.9386 -98.9186 53° Northeast 399 459 25,500 960 Climbing Houston Center
12:27 27.0067 -98.8150 54° Northeast 410 472 26,600 1,080 Climbing Houston Center
12:28 27.0908 -98.6881 53° Northeast 423 487 27,800 1,080 Climbing Houston Center
12:29 27.1689 -98.5878 49° Northeast 428 493 28,900 960 Climbing Houston Center
12:30 27.2592 -98.5008 41° Northeast 430 495 29,900 960 Climbing Houston Center
12:31 27.3494 -98.4097 42° Northeast 435 501 30,900 960 Climbing Houston Center
12:32 27.4403 -98.3192 41° Northeast 439 505 32,000 960 Climbing Houston Center
12:33 27.5519 -98.2083 41° Northeast 445 512 33,000 480 Climbing Houston Center
12:34 27.6483 -98.1111 42° Northeast 463 533 33,000  Level Houston Center
12:35 27.7508 -98.0100 41° Northeast 487 560 33,000  Level Houston Center
12:36 27.8567 -97.9028 42° Northeast 508 585 33,000  Level Houston Center
12:38 27.9625 -97.7953 42° Northeast 512 589 33,000  Level Houston Center
12:39 28.0925 -97.6694 40° Northeast 514 592 33,000  Level Houston Center
12:40 28.1967 -97.5628 42° Northeast 509 586 33,000  Level Houston Center
12:41 28.3008 -97.4583 41° Northeast 503 579 33,000  Level Houston Center
12:42 28.4064 -97.3500 42° Northeast 509 586 33,000  Level Houston Center
12:43 28.5117 -97.2414 42° Northeast 512 589 33,000  Level Houston Center
12:44 28.6389 -97.1100 42° Northeast 515 593 33,000 -240 Level Houston Center
12:45 28.7450 -97.0022 42° Northeast 514 592 32,600 -1,440 Descending Houston Center
12:46 28.8461 -96.8969 42° Northeast 498 573 30,100 -2,640 Descending Houston Center
12:47 28.9478 -96.7911 42° Northeast 497 572 27,200 -2,820 Descending Houston Center
12:48 29.0550 -96.6803 42° Northeast 521 600 24,300 -3,000 Descending Houston Center
12:49 29.1744 -96.5544 43° Northeast 491 565 21,100 -2,820 Descending Houston Center
12:50 29.2681 -96.4581 42° Northeast 463 533 18,500 -2,760 Descending Houston Center
12:50 29.3183 -96.4053 42° Northeast 454 522 16,900 -3,000 Descending Houston Center
12:51 29.3492 -96.3731 42° Northeast 459 528 16,100 -2,520 Descending Houston Center
12:52 29.4378 -96.2817 42° Northeast 440 506 13,600 -2,220 Descending Houston Center
12:52 29.4494 -96.2678 46° Northeast 439 505 13,300 -1,440 Descending Houston Center
12:53 29.5203 -96.1911 43° Northeast 355 409 12,200 -1,260 Descending Houston Center
12:53 29.5253 -96.1872 34° Northeast 382 440 12,000 -120 Descending Houston Center
12:54 29.5794 -96.0981 55° Northeast 352 405 12,100 -120 Climbing Houston Center
12:54 29.5919 -96.0733 60° Northeast 364 419 11,900  Descending Houston Center
12:55 29.6283 -96.0061 58° Northeast 332 382 12,100  Climbing Houston Center
12:55 29.6364 -95.9864 65° Northeast 340 391 11,900 -1,320 Descending Houston Center
12:56 29.6725 -95.9122 61° Northeast 321 369 10,800 -1,500 Descending Houston Center
12:56 29.6800 -95.8975 60° Northeast 323 372 10,400 -1,620 Descending Houston Center
12:57 29.7175 -95.8253 59° Northeast 318 366 9,200 -1,560 Descending Houston Center
12:57 29.7250 -95.8103 60° Northeast 318 366 8,800 -1,620 Descending Houston Center
12:58 29.7622 -95.7383 59° Northeast 315 362 7,600 -1,860 Descending Houston Center
12:58 29.7781 -95.7050 61° Northeast 316 364 6,900 -1,200 Descending Houston Center
12:59 29.8064 -95.6464 61° Northeast 312 359 6,400 -900 Descending Houston Center
12:59 29.8214 -95.6192 58° Northeast 312 359 6,000 -300 Descending Houston Center
13:00 29.8514 -95.5617 59° Northeast 309 356 6,100  Climbing Houston Center
13:00 29.8633 -95.5336 64° Northeast 307 353 6,000  Descending Houston Center
13:01 29.8917 -95.4750 61° Northeast 300 345 6,100  Climbing Houston Center
13:01 29.8947 -95.4464 83° East 301 346 6,000  Descending Houston Center
13:02 29.8964 -95.3875 88° East 265 305 6,100  Climbing Houston Center
13:02 29.8969 -95.3611 89° East 269 310 6,000  Descending Houston Center
13:03 29.8953 -95.3058 92° East 256 295 6,100  Climbing Houston Center
13:03 29.8967 -95.2789 87° East 258 297 6,000  Descending Houston Center
13:04 29.8964 -95.2261 90° East 249 287 6,100  Climbing Houston Center
13:04 29.8964 -95.1986 90° East 251 289 6,000  Descending Houston Center
13:05 29.8967 -95.1394 90° East 257 296 6,100 -420 Climbing Houston Center
13:05 29.8972 -95.0989 89° East 256 295 5,600 -900 Descending Houston Center
13:06 29.8972 -95.0550 90° East 254 292 5,200 -600 Descending Houston Center
13:07 29.8978 -95.0186 89° East 253 291 5,000 -120 Descending Houston Center
13:07 29.9028 -94.9819 81° East 220 253 5,100 -120 Climbing Houston Center
13:08 29.9281 -94.9661 28° Northeast 237 273 4,900 -120 Descending Houston Center
13:08 29.9600 -94.9628 North 232 267 5,000  Climbing Houston Center
13:09 29.9747 -94.9872 305° West 217 250 4,900 -240 Descending Houston Center
13:09 29.9856 -95.0125 296° West 167 192 4,800 -600 Descending Houston Center
13:10 29.9947 -95.0361 294° West 179 206 4,300 -720 Descending Houston Center
13:10 29.9925 -95.0647 265° West 154 177 4,100 -420 Descending Houston Center
13:11 29.9936 -95.0961 272° West 158 182 3,900 -420 Descending Houston Center
13:11 29.9933 -95.1178 269° West 159 183 3,700 -900 Descending Houston Center
13:12 29.9936 -95.1475 271° West 160 184 3,000 -1,020 Descending Houston Center
13:12 29.9942 -95.1708 272° West 169 194 2,700 -900 Descending Houston Center
13:13 29.9933 -95.2011 268° West 163 188 2,100 -840 Descending Houston Center
13:13 29.9928 -95.2239 268° West 175 201 1,900 -780 Descending Houston Center
13:14 29.9939 -95.2519 273° West 164 189 1,300 -840 Descending Houston Center
13:14 29.9928 -95.2697 266° West 131 151 1,100 -720 Descending Houston Center
13:15 29.9939 -95.2944 273° West 149 171 600 -480 Descending Houston Center
13:16 29.9942 -95.3469 270° West 145 167 300 -300 Descending Houston Center